Time;durP1;ratioP1;P1;durP2;ratioP2;P2;SDS_P1;SDS_P2;PMS_P1;PMS_P2;Temp;Humidity;BMP_temperature;BMP_pressure;BME280_temperature;BME280_humidity;BME280_pressure;Samples;Min_cycle;Max_cycle;Signal;HPM_P1;HPM_P2
2022/09/09 00:00:16;;;;;;;6.03;2.93;;;;;;;13.11;100.00;100760.50;5034776;28;20292;-77
2022/09/09 00:02:50;;;;;;;3.97;2.65;;;;;;;13.03;100.00;100757.31;5035696;28;20034;-77
2022/09/09 00:05:27;;;;;;;4.93;2.63;;;;;;;12.94;100.00;100753.22;5035195;28;20020;-77
2022/09/09 00:07:56;;;;;;;6.97;2.70;;;;;;;12.92;100.00;100749.84;5037913;28;20469;-77
2022/09/09 00:10:41;;;;;;;4.03;2.53;;;;;;;12.94;100.00;100741.91;5035317;28;20026;-77
2022/09/09 00:13:33;;;;;;;4.70;2.70;;;;;;;12.97;100.00;100744.44;5035393;28;20044;-77
2022/09/09 00:16:12;;;;;;;6.13;2.75;;;;;;;12.96;100.00;100746.19;5034550;28;20032;-77
2022/09/09 00:18:53;;;;;;;5.03;2.88;;;;;;;12.96;100.00;100740.13;5035177;28;20021;-77
2022/09/09 00:21:22;;;;;;;5.70;2.70;;;;;;;12.95;100.00;100748.84;5034272;28;20036;-77
2022/09/09 00:23:51;;;;;;;4.03;2.60;;;;;;;12.85;100.00;100743.97;5035180;28;20025;-77
2022/09/09 00:26:31;;;;;;;4.45;2.47;;;;;;;12.81;100.00;100741.47;5035150;28;20033;-77
2022/09/09 00:29:02;;;;;;;4.03;2.65;;;;;;;12.78;100.00;100747.66;5034447;28;20088;-77
2022/09/09 00:31:30;;;;;;;5.03;2.67;;;;;;;12.82;100.00;100744.06;5035003;28;20025;-77
2022/09/09 00:34:14;;;;;;;4.93;2.80;;;;;;;12.82;100.00;100740.59;5035040;28;20045;-77
2022/09/09 00:36:41;;;;;;;3.60;2.45;;;;;;;12.74;100.00;100746.06;5033498;28;20022;-77
2022/09/09 00:39:18;;;;;;;6.70;2.55;;;;;;;12.73;100.00;100738.28;5041188;28;20032;-77
2022/09/09 00:42:02;;;;;;;6.05;2.53;;;;;;;12.71;100.00;100730.47;5054792;28;20017;-77
2022/09/09 00:44:34;;;;;;;4.28;2.40;;;;;;;12.68;100.00;100724.50;5050601;28;20045;-77
2022/09/09 00:47:25;;;;;;;5.80;2.40;;;;;;;12.63;100.00;100719.44;5050733;28;20460;-77
2022/09/09 00:50:03;;;;;;;4.10;2.63;;;;;;;12.59;100.00;100723.06;5053477;28;20037;-77
2022/09/09 00:52:34;;;;;;;8.00;2.90;;;;;;;12.59;100.00;100717.84;5054299;28;20086;-77
2022/09/09 00:55:15;;;;;;;5.30;2.70;;;;;;;12.57;100.00;100717.88;5054535;28;20074;-77
2022/09/09 00:57:41;;;;;;;3.65;2.35;;;;;;;12.61;100.00;100723.84;5052664;28;20051;-77
2022/09/09 01:00:24;;;;;;;5.20;2.55;;;;;;;12.58;100.00;100723.97;5054578;28;20029;-77
2022/09/09 01:03:20;;;;;;;3.67;2.20;;;;;;;12.56;100.00;100725.78;5054384;28;20028;-77
2022/09/09 01:05:51;;;;;;;5.68;2.38;;;;;;;12.50;100.00;100720.75;5054533;28;20040;-77
2022/09/09 01:08:47;;;;;;;4.13;2.33;;;;;;;12.51;100.00;100727.69;5052185;28;20465;-77
2022/09/09 01:11:22;;;;;;;6.65;2.70;;;;;;;12.47;100.00;100713.00;5051948;28;20029;-77
2022/09/09 01:13:53;;;;;;;5.15;2.10;;;;;;;12.49;100.00;100719.91;5034218;28;20061;-77
2022/09/09 01:16:18;;;;;;;4.97;2.22;;;;;;;12.48;100.00;100712.09;5034154;28;20488;-77
2022/09/09 01:18:48;;;;;;;5.53;2.75;;;;;;;12.45;100.00;100717.44;5050458;28;20100;-77
2022/09/09 01:21:24;;;;;;;8.98;2.40;;;;;;;12.47;100.00;100721.72;5053745;28;20025;-77
2022/09/09 01:23:55;;;;;;;3.67;2.40;;;;;;;12.46;100.00;100713.91;5053708;28;20021;-77
2022/09/09 01:26:35;;;;;;;5.20;2.70;;;;;;;12.46;100.00;100709.56;5050637;28;20029;-77
2022/09/09 01:29:00;;;;;;;7.00;2.78;;;;;;;12.43;100.00;100700.97;5033728;28;20029;-77
2022/09/09 01:31:35;;;;;;;9.88;2.92;;;;;;;12.46;100.00;100703.44;5033159;28;20042;-77
2022/09/09 01:34:00;;;;;;;6.75;2.92;;;;;;;12.44;100.00;100705.28;5034196;28;20045;-77
2022/09/09 01:36:38;;;;;;;4.45;2.90;;;;;;;12.39;100.00;100702.78;5034811;28;20591;-77
2022/09/09 01:39:04;;;;;;;10.82;3.53;;;;;;;12.47;100.00;100705.16;5052810;28;20032;-77
2022/09/09 01:41:29;;;;;;;5.85;3.65;;;;;;;12.44;100.00;100695.66;5052814;28;20025;-77
2022/09/09 01:43:56;;;;;;;8.52;3.60;;;;;;;12.43;100.00;100695.72;5053516;28;20053;-77
2022/09/09 01:46:23;;;;;;;7.70;3.33;;;;;;;12.47;100.00;100697.31;5052429;28;20029;-77
2022/09/09 01:48:50;;;;;;;7.60;4.00;;;;;;;12.47;100.00;100692.94;5050435;28;20036;-77
2022/09/09 01:51:16;;;;;;;9.02;3.60;;;;;;;12.41;100.00;100693.16;5053083;28;20353;-77
2022/09/09 01:53:43;;;;;;;5.22;3.60;;;;;;;12.41;100.00;100694.00;5052685;28;20048;-77
2022/09/09 01:56:29;;;;;;;10.68;3.47;;;;;;;12.40;100.00;100684.44;5053557;28;20421;-77
2022/09/09 01:59:08;;;;;;;8.88;3.90;;;;;;;12.39;100.00;100682.75;5052301;28;20041;-76
2022/09/09 02:01:53;;;;;;;9.70;3.85;;;;;;;12.35;100.00;100683.75;5052477;28;20033;-77
2022/09/09 02:04:28;;;;;;;6.47;3.85;;;;;;;12.33;100.00;100676.88;5052993;28;20036;-77
2022/09/09 02:06:56;;;;;;;6.57;3.72;;;;;;;12.37;100.00;100678.47;5050047;28;20044;-77
2022/09/09 02:09:25;;;;;;;8.45;4.13;;;;;;;12.39;100.00;100674.91;5037393;28;20419;-77
2022/09/09 02:12:08;;;;;;;9.50;4.13;;;;;;;12.36;100.00;100672.41;5053097;28;20053;-77
2022/09/09 02:14:41;;;;;;;10.30;3.97;;;;;;;12.30;100.00;100677.81;5052026;28;20033;-77
2022/09/09 02:17:12;;;;;;;10.63;4.50;;;;;;;12.28;100.00;100682.25;5048394;28;20041;-77
2022/09/09 02:19:46;;;;;;;11.68;4.50;;;;;;;12.29;100.00;100686.56;5046280;28;20025;-77
2022/09/09 02:22:12;;;;;;;9.85;5.00;;;;;;;12.31;100.00;100684.75;5052454;28;20052;-77
2022/09/09 02:24:40;;;;;;;8.50;4.50;;;;;;;12.29;100.00;100686.56;5052839;28;20040;-77
2022/09/09 02:27:08;;;;;;;9.75;5.10;;;;;;;12.31;100.00;100676.06;5049079;28;20044;-77
2022/09/09 02:29:38;;;;;;;9.57;4.60;;;;;;;12.31;100.00;100670.84;5032166;28;20029;-77
2022/09/09 02:32:09;;;;;;;12.38;4.35;;;;;;;12.27;100.00;100684.91;5033056;28;20022;-77
2022/09/09 02:34:39;;;;;;;11.00;4.75;;;;;;;12.26;100.00;100670.13;5032493;28;20029;-77
2022/09/09 02:37:07;;;;;;;11.40;4.47;;;;;;;12.24;100.00;100671.94;5032176;28;20049;-77
2022/09/09 02:39:33;;;;;;;8.55;4.53;;;;;;;12.26;100.00;100665.78;5032358;28;20037;-77
2022/09/09 02:41:59;;;;;;;11.27;4.70;;;;;;;12.25;100.00;100664.03;5032204;28;20350;-77
2022/09/09 02:44:24;;;;;;;12.52;4.63;;;;;;;12.29;100.00;100660.41;5032297;28;20038;-77
2022/09/09 02:47:12;;;;;;;6.03;4.15;;;;;;;12.28;100.00;100661.31;5033539;28;20022;-77
2022/09/09 02:50:08;;;;;;;11.05;4.93;;;;;;;12.26;100.00;100671.00;5049592;28;20032;-77
2022/09/09 02:52:54;;;;;;;7.72;4.15;;;;;;;12.29;100.00;100663.03;5052433;28;20049;-77
2022/09/09 02:55:38;;;;;;;7.47;4.55;;;;;;;12.27;100.00;100670.09;5052128;28;20040;-77
2022/09/09 02:58:11;;;;;;;10.63;4.68;;;;;;;12.30;100.00;100676.97;5050339;28;20431;-77
2022/09/09 03:00:39;;;;;;;8.45;4.82;;;;;;;12.24;100.00;100671.94;5052266;28;20032;-77
2022/09/09 03:03:07;;;;;;;11.25;4.25;;;;;;;12.24;100.00;100670.19;5051644;28;20488;-77
2022/09/09 03:05:33;;;;;;;13.80;4.75;;;;;;;12.28;100.00;100679.63;5044338;28;20048;-77
2022/09/09 03:07:58;;;;;;;10.32;4.43;;;;;;;12.25;100.00;100674.50;5040821;28;20033;-77
2022/09/09 03:10:24;;;;;;;14.23;5.05;;;;;;;12.24;100.00;100670.19;5053118;28;20035;-77
2022/09/09 03:12:50;;;;;;;15.48;4.93;;;;;;;12.24;100.00;100678.03;5056412;28;20020;-77
2022/09/09 03:15:16;;;;;;;11.90;4.55;;;;;;;12.25;100.00;100673.66;5055374;28;20025;-77
2022/09/09 03:17:41;;;;;;;6.68;4.20;;;;;;;12.25;100.00;100676.25;5053184;28;20464;-77
2022/09/09 03:20:08;;;;;;;13.95;4.78;;;;;;;12.28;100.00;100682.25;5055746;28;20116;-77
2022/09/09 03:22:33;;;;;;;11.38;4.28;;;;;;;12.28;100.00;100690.09;5055964;28;20471;-77
2022/09/09 03:24:58;;;;;;;11.23;4.93;;;;;;;12.30;100.00;100693.50;5055470;28;20039;-77
2022/09/09 03:27:24;;;;;;;11.23;3.97;;;;;;;12.31;100.00;100689.97;5053967;28;20029;-77
2022/09/09 03:29:52;;;;;;;10.52;4.50;;;;;;;12.34;100.00;100689.03;5056079;28;20033;-77
2022/09/09 03:32:18;;;;;;;8.43;3.83;;;;;;;12.35;100.00;100691.59;5055522;28;20096;-77
2022/09/09 03:34:43;;;;;;;12.90;4.20;;;;;;;12.30;100.00;100693.50;5055423;28;20025;-77
2022/09/09 03:37:09;;;;;;;8.90;4.20;;;;;;;12.32;100.00;100686.44;5051088;28;20156;-77
2022/09/09 03:39:34;;;;;;;11.93;4.20;;;;;;;12.33;100.00;100677.72;5035286;28;20556;-77
2022/09/09 03:42:01;;;;;;;12.43;3.95;;;;;;;12.31;100.00;100686.53;5035873;28;20032;-77
2022/09/09 03:44:27;;;;;;;8.40;4.10;;;;;;;12.29;100.00;100681.31;5048510;28;20045;-77
2022/09/09 03:46:52;;;;;;;11.18;4.13;;;;;;;12.28;100.00;100674.41;5055406;28;20024;-77
2022/09/09 03:49:17;;;;;;;5.43;3.90;;;;;;;12.29;100.00;100677.84;5050955;28;20029;-77
2022/09/09 03:51:43;;;;;;;10.95;3.80;;;;;;;12.28;100.00;100678.78;5035700;28;20113;-76
2022/09/09 03:54:10;;;;;;;8.75;4.68;;;;;;;12.29;100.00;100677.84;5035358;28;20036;-77
2022/09/09 03:56:36;;;;;;;12.00;4.05;;;;;;;12.30;100.00;100683.06;5035471;28;20168;-77
2022/09/09 03:59:01;;;;;;;10.90;4.25;;;;;;;12.28;100.00;100684.00;5050440;28;20503;-77
2022/09/09 04:01:26;;;;;;;11.80;4.68;;;;;;;12.28;100.00;100677.00;5054789;28;20025;-77
2022/09/09 04:03:52;;;;;;;9.40;4.03;;;;;;;12.29;100.00;100676.09;5055713;28;20027;-77
2022/09/09 04:06:18;;;;;;;10.90;4.00;;;;;;;12.28;100.00;100676.16;5051270;28;20025;-77
2022/09/09 04:08:44;;;;;;;8.82;4.50;;;;;;;12.30;100.00;100676.97;5041277;28;20037;-77
2022/09/09 04:11:10;;;;;;;10.95;4.53;;;;;;;12.29;100.00;100660.41;5035297;28;20040;-76
2022/09/09 04:13:40;;;;;;;12.32;4.20;;;;;;;12.34;100.00;100666.34;5034604;28;20525;-77
2022/09/09 04:16:06;;;;;;;11.75;4.53;;;;;;;12.36;100.00;100674.13;5037617;28;20021;-77
2022/09/09 04:18:31;;;;;;;12.68;5.03;;;;;;;12.38;100.00;100675.78;5042708;28;20037;-76
2022/09/09 04:20:57;;;;;;;13.55;5.03;;;;;;;12.43;100.00;100678.28;5034642;28;20033;-77
2022/09/09 04:23:24;;;;;;;9.82;4.35;;;;;;;12.47;100.00;100664.19;5034221;28;20018;-76
2022/09/09 04:25:52;;;;;;;12.35;4.80;;;;;;;12.52;100.00;100669.25;5052365;28;20112;-77
2022/09/09 04:28:20;;;;;;;16.30;5.18;;;;;;;12.50;100.00;100660.63;5043847;28;20037;-77
2022/09/09 04:30:45;;;;;;;8.93;5.03;;;;;;;12.48;100.00;100667.66;5035207;28;20037;-77
2022/09/09 04:33:12;;;;;;;11.82;4.70;;;;;;;12.48;100.00;100665.03;5034982;28;20145;-77
2022/09/09 04:35:38;;;;;;;12.68;5.03;;;;;;;12.48;100.00;100660.66;5034701;28;20021;-77
2022/09/09 04:38:04;;;;;;;13.05;4.53;;;;;;;12.44;100.00;100659.06;5053089;28;20104;-77
2022/09/09 04:40:31;;;;;;;14.68;4.88;;;;;;;12.45;100.00;100652.91;5054215;28;20468;-77
2022/09/09 04:43:00;;;;;;;15.57;5.32;;;;;;;12.46;100.00;100661.59;5054262;28;20045;-77
2022/09/09 04:45:26;;;;;;;10.05;4.32;;;;;;;12.44;100.00;100659.06;5054457;28;20063;-77
2022/09/09 04:47:52;;;;;;;17.20;5.22;;;;;;;12.40;100.00;100658.31;5039593;28;20021;-77
2022/09/09 04:50:17;;;;;;;12.95;4.90;;;;;;;12.40;100.00;100647.84;5053776;28;20495;-77
2022/09/09 04:52:43;;;;;;;14.77;4.90;;;;;;;12.43;100.00;100652.13;5039240;28;20025;-77
2022/09/09 04:55:09;;;;;;;12.23;4.55;;;;;;;12.49;100.00;100651.03;5034417;28;20104;-77
2022/09/09 04:57:34;;;;;;;12.68;5.20;;;;;;;12.51;100.00;100638.78;5036178;28;20021;-77
2022/09/09 05:00:00;;;;;;;12.20;5.15;;;;;;;12.57;100.00;100639.41;5041160;28;20030;-77
2022/09/09 05:02:26;;;;;;;14.20;5.20;;;;;;;12.58;100.00;100638.50;5033770;28;20477;-77
2022/09/09 05:04:51;;;;;;;12.68;5.43;;;;;;;12.57;100.00;100643.81;5034493;28;20025;-77
2022/09/09 05:07:16;;;;;;;12.18;4.75;;;;;;;12.55;100.00;100646.44;5033816;28;20037;-77
2022/09/09 05:09:42;;;;;;;10.48;5.07;;;;;;;12.56;100.00;100649.94;5033639;28;20108;-77
2022/09/09 05:12:08;;;;;;;15.43;5.00;;;;;;;12.56;100.00;100648.19;5034577;28;20029;-77
2022/09/09 05:14:36;;;;;;;13.65;4.72;;;;;;;12.56;100.00;100636.88;5034032;28;20021;-77
2022/09/09 05:17:01;;;;;;;15.50;5.28;;;;;;;12.60;100.00;100643.69;5042961;28;20033;-77
2022/09/09 05:19:26;;;;;;;18.10;5.13;;;;;;;12.60;100.00;100644.53;5035756;28;20404;-77
2022/09/09 05:21:52;;;;;;;12.95;5.15;;;;;;;12.60;100.00;100641.09;5034199;28;20392;-77
2022/09/09 05:24:17;;;;;;;9.70;4.88;;;;;;;12.59;100.00;100644.63;5033084;28;20017;-77
2022/09/09 05:26:43;;;;;;;15.63;4.90;;;;;;;12.58;100.00;100645.50;5051415;28;20100;-77
2022/09/09 05:29:08;;;;;;;16.42;5.22;;;;;;;12.59;100.00;100637.63;5052670;28;20086;-77
2022/09/09 05:31:33;;;;;;;17.90;5.00;;;;;;;12.59;100.00;100635.00;5053162;28;20534;-77
2022/09/09 05:33:59;;;;;;;11.35;4.70;;;;;;;12.59;100.00;100631.53;5053063;28;20063;-76
2022/09/09 05:36:24;;;;;;;14.40;4.90;;;;;;;12.64;100.00;100638.28;5053407;28;20411;-77
2022/09/09 05:38:50;;;;;;;18.40;5.63;;;;;;;12.69;100.00;100638.16;5050803;28;20033;-77
2022/09/09 05:41:17;;;;;;;13.68;5.28;;;;;;;12.74;100.00;100645.81;5053530;28;20469;-77
2022/09/09 05:43:49;;;;;;;14.65;5.57;;;;;;;12.76;100.00;100644.88;5053283;28;20041;-76
2022/09/09 05:46:20;;;;;;;13.02;5.22;;;;;;;12.83;100.00;100648.97;5053173;28;20021;-77
2022/09/09 05:48:47;;;;;;;14.70;5.40;;;;;;;12.84;100.00;100657.66;5041330;28;20402;-77
2022/09/09 05:51:17;;;;;;;16.42;5.32;;;;;;;12.86;100.00;100661.09;5033201;28;20025;-77
2022/09/09 05:53:44;;;;;;;12.90;4.72;;;;;;;12.89;100.00;100651.38;5033214;28;20036;-77
2022/09/09 05:56:12;;;;;;;18.00;5.72;;;;;;;12.88;100.00;100649.66;5033599;28;20044;-77
2022/09/09 05:58:38;;;;;;;11.02;4.72;;;;;;;12.94;100.00;100656.41;5036195;28;20049;-77
2022/09/09 06:01:09;;;;;;;16.63;5.57;;;;;;;12.98;100.00;100660.66;5040994;28;20053;-77
2022/09/09 06:03:36;;;;;;;23.50;5.30;;;;;;;13.05;100.00;100664.75;5051979;28;20535;-77
2022/09/09 06:06:07;;;;;;;14.65;5.50;;;;;;;13.16;100.00;100663.50;5052427;28;20021;-77
2022/09/09 06:08:40;;;;;;;15.70;5.60;;;;;;;13.24;100.00;100657.13;5051983;28;20044;-77
2022/09/09 06:11:17;;;;;;;16.80;5.72;;;;;;;13.32;100.00;100651.56;5053122;28;20384;-77
2022/09/09 06:13:43;;;;;;;15.48;5.55;;;;;;;13.41;100.00;100655.63;5052480;28;20468;-77
2022/09/09 06:16:13;;;;;;;18.23;6.47;;;;;;;13.50;100.00;100660.47;5050626;28;20035;-77
2022/09/09 06:18:42;;;;;;;15.55;6.10;;;;;;;13.61;100.00;100658.31;5052580;28;20448;-77
2022/09/09 06:21:14;;;;;;;18.88;6.38;;;;;;;13.66;100.00;100652.88;5052675;28;20029;-77
2022/09/09 06:23:40;;;;;;;21.80;6.47;;;;;;;13.60;100.00;100659.22;5052861;28;20017;-77
2022/09/09 06:26:17;;;;;;;17.15;5.07;;;;;;;13.55;100.00;100658.56;5051207;28;20013;-77
2022/09/09 06:28:44;;;;;;;23.92;5.60;;;;;;;13.45;100.00;100659.81;5051562;28;20123;-77
2022/09/09 06:31:11;;;;;;;16.40;5.28;;;;;;;13.41;100.00;100661.72;5052992;28;20143;-77
2022/09/09 06:33:41;;;;;;;16.92;5.03;;;;;;;13.38;100.00;100659.19;5050017;28;20039;-77
2022/09/09 06:36:11;;;;;;;15.82;5.30;;;;;;;13.38;100.00;100653.97;5050203;28;20035;-77
2022/09/09 06:38:37;;;;;;;21.13;6.07;;;;;;;13.41;100.00;100658.25;5052578;28;20033;-77
2022/09/09 06:41:03;;;;;;;17.67;5.15;;;;;;;13.35;100.00;100649.69;5052650;28;20024;-77
2022/09/09 06:43:29;;;;;;;18.45;5.78;;;;;;;13.35;100.00;100656.69;5052203;28;20045;-76
2022/09/09 06:45:58;;;;;;;21.95;6.13;;;;;;;13.37;100.00;100654.84;5049556;28;20108;-77
2022/09/09 06:48:25;;;;;;;17.33;5.45;;;;;;;13.35;100.00;100648.84;5050015;28;20052;-77
2022/09/09 06:51:01;;;;;;;17.92;5.65;;;;;;;13.41;100.00;100650.38;5032555;28;20036;-77
2022/09/09 06:53:27;;;;;;;18.67;6.57;;;;;;;13.38;100.00;100642.66;5032161;28;20108;-77
2022/09/09 06:55:52;;;;;;;21.27;6.75;;;;;;;13.42;100.00;100646.84;5040243;28;20029;-77
2022/09/09 06:58:18;;;;;;;20.17;6.40;;;;;;;13.47;100.00;100647.50;5052411;28;20126;-77
2022/09/09 07:00:43;;;;;;;16.42;6.55;;;;;;;13.55;100.00;100650.69;5049419;28;20059;-77
2022/09/09 07:03:09;;;;;;;17.73;6.80;;;;;;;13.72;100.00;100650.88;5052091;28;20116;-77
2022/09/09 07:05:35;;;;;;;14.57;7.22;;;;;;;13.81;100.00;100658.38;5041439;28;20017;-76
2022/09/09 07:08:00;;;;;;;25.20;7.15;;;;;;;13.92;100.00;100644.00;5032358;28;20112;-77
2022/09/09 07:10:25;;;;;;;20.17;7.15;;;;;;;14.11;100.00;100650.19;5031741;28;20424;-77
2022/09/09 07:12:52;;;;;;;23.15;7.30;;;;;;;14.22;100.00;100648.00;5032476;28;20103;-77
2022/09/09 07:15:18;;;;;;;17.08;6.80;;;;;;;14.29;100.00;100652.06;5035222;28;20037;-77
2022/09/09 07:17:44;;;;;;;22.38;6.43;;;;;;;14.32;100.00;100655.47;5049291;28;20029;-77
2022/09/09 07:20:09;;;;;;;14.85;5.63;;;;;;;14.40;100.00;100648.13;5050526;28;20043;-76
2022/09/09 07:22:34;;;;;;;18.27;6.20;;;;;;;14.58;100.00;100654.38;5046967;28;20043;-76
2022/09/09 07:24:59;;;;;;;13.05;5.10;;;;;;;14.59;100.00;100659.56;5034037;28;20028;-75
2022/09/09 07:27:25;;;;;;;14.15;4.97;;;;;;;14.62;100.00;100642.84;5031566;28;20041;-76
2022/09/09 07:29:50;;;;;;;17.02;4.30;;;;;;;14.65;100.00;100650.56;5032056;28;20029;-76
2022/09/09 07:32:17;;;;;;;15.80;4.57;;;;;;;14.76;100.00;100637.84;5047065;28;20031;-75
2022/09/09 07:34:42;;;;;;;15.15;4.38;;;;;;;14.92;100.00;100646.75;5058193;28;20358;-76
2022/09/09 07:37:11;;;;;;;15.57;5.15;;;;;;;15.16;100.00;100642.16;5051907;28;20104;-75
2022/09/09 07:39:36;;;;;;;14.35;4.13;;;;;;;15.32;100.00;100654.59;5049158;28;20036;-76
2022/09/09 07:42:02;;;;;;;10.38;3.53;;;;;;;15.33;100.00;100653.66;5052289;28;20025;-75
2022/09/09 07:44:27;;;;;;;10.00;3.53;;;;;;;15.40;100.00;100652.44;5044325;28;20407;-75
2022/09/09 07:46:53;;;;;;;19.13;4.22;;;;;;;15.45;100.00;100651.31;5032268;28;20033;-76
2022/09/09 07:49:18;;;;;;;11.35;3.63;;;;;;;15.52;100.00;100654.50;5034336;28;20121;-76
2022/09/09 07:51:46;;;;;;;13.10;3.88;;;;;;;15.52;100.00;100649.25;5031411;28;20101;-76
2022/09/09 07:54:13;;;;;;;14.88;3.72;;;;;;;15.49;100.00;100649.41;5034384;28;20021;-76
2022/09/09 07:56:39;;;;;;;10.88;4.18;;;;;;;15.55;100.00;100651.75;5051319;28;20029;-76
2022/09/09 07:59:06;;;;;;;12.50;3.72;;;;;;;15.73;100.00;100651.81;5054281;28;20473;-75
2022/09/09 08:01:38;;;;;;;11.75;3.42;;;;;;;15.86;100.00;100651.19;5054497;28;20052;-76
2022/09/09 08:04:07;;;;;;;12.52;3.58;;;;;;;15.94;100.00;100653.44;5059599;28;20028;-76
2022/09/09 08:06:39;;;;;;;11.60;3.55;;;;;;;16.05;100.00;100659.00;5034809;28;20029;-76
2022/09/09 08:09:07;;;;;;;22.70;3.60;;;;;;;16.02;100.00;100653.03;5043156;28;20162;-74
2022/09/09 08:11:33;;;;;;;10.77;3.20;;;;;;;16.09;100.00;100651.84;5054864;28;20491;-76
2022/09/09 08:13:59;;;;;;;10.70;3.50;;;;;;;16.18;100.00;100647.88;5051893;28;20101;-76
2022/09/09 08:16:30;;;;;;;10.90;3.55;;;;;;;16.24;100.00;100652.84;5035011;28;20025;-75
2022/09/09 08:18:57;;;;;;;11.25;3.50;;;;;;;16.38;100.00;100645.97;5045607;28;20025;-76
2022/09/09 08:21:31;;;;;;;8.95;3.35;;;;;;;16.48;100.00;100648.09;5054361;28;20058;-76
2022/09/09 08:23:58;;;;;;;11.20;3.13;;;;;;;16.44;100.00;100647.41;5055364;28;20037;-76
2022/09/09 08:26:28;;;;;;;10.10;3.15;;;;;;;16.37;100.00;100644.25;5050019;28;20029;-75
2022/09/09 08:28:56;;;;;;;8.95;2.47;;;;;;;16.34;100.00;100654.06;5048599;28;20112;-76
2022/09/09 08:31:24;;;;;;;14.82;3.53;;;;;;;16.25;100.00;100651.91;5054556;28;20095;-76
2022/09/09 08:33:49;;;;;;;8.63;2.67;;;;;;;16.23;100.00;100653.78;5054124;28;20086;-75
2022/09/09 08:36:17;;;;;;;7.60;2.83;;;;;;;16.29;100.00;100656.94;5053020;28;20025;-75
2022/09/09 08:38:43;;;;;;;8.38;2.75;;;;;;;16.21;100.00;100653.84;5036171;28;20138;-75
2022/09/09 08:41:36;;;;;;;11.82;3.28;;;;;;;16.01;100.00;100664.50;5034298;28;20029;-75
2022/09/09 08:44:17;;;;;;;9.95;2.60;;;;;;;15.88;100.00;100666.84;5034503;28;20084;-72
2022/09/09 08:47:20;;;;;;;13.18;4.65;;;;;;;15.87;100.00;100662.53;5038325;28;20389;-71
2022/09/09 08:49:50;;;;;;;7.72;2.95;;;;;;;15.96;100.00;100671.75;5042502;28;20032;-72
2022/09/09 08:52:21;;;;;;;9.10;2.72;;;;;;;16.06;100.00;100665.97;5049310;28;20044;-75
2022/09/09 08:54:47;;;;;;;10.63;2.80;;;;;;;16.26;100.00;100662.38;5055693;28;20068;-72
2022/09/09 08:57:21;;;;;;;8.60;3.08;;;;;;;16.47;100.00;100672.72;5060174;28;20083;-72
2022/09/09 08:59:48;;;;;;;11.23;2.92;;;;;;;16.52;100.00;100668.94;5068260;28;20079;-73
2022/09/09 09:02:24;;;;;;;11.15;2.65;;;;;;;16.52;100.00;100674.19;5051551;28;20032;-72
2022/09/09 09:05:01;;;;;;;11.05;2.55;;;;;;;16.54;100.00;100682.00;5054572;28;20029;-72
2022/09/09 09:08:00;;;;;;;8.43;2.33;;;;;;;16.52;100.00;100682.09;5053821;28;20095;-72
2022/09/09 09:10:49;;;;;;;8.68;3.13;;;;;;;16.51;100.00;100680.41;5053503;28;20025;-72
2022/09/09 09:13:25;;;;;;;11.55;2.72;;;;;;;16.68;100.00;100678.69;5054371;28;20389;-72
2022/09/09 09:15:58;;;;;;;5.85;2.40;;;;;;;16.65;100.00;100679.69;5043369;28;20538;-72
2022/09/09 09:18:23;;;;;;;10.05;2.75;;;;;;;16.58;100.00;100689.69;5050089;28;20028;-72
2022/09/09 09:21:05;;;;;;;11.90;2.95;;;;;;;16.51;100.00;100685.66;5051735;28;20468;-71
2022/09/09 09:23:42;;;;;;;8.73;2.70;;;;;;;16.29;100.00;100688.50;5052916;28;20103;-72
2022/09/09 09:26:11;;;;;;;11.00;3.33;;;;;;;16.29;100.00;100690.31;5054072;28;20029;-72
2022/09/09 09:28:36;;;;;;;11.88;3.08;;;;;;;16.27;100.00;100700.03;5052439;28;20033;-71
2022/09/09 09:31:07;;;;;;;11.57;2.97;;;;;;;16.28;100.00;100704.34;5034754;28;20072;-72
2022/09/09 09:33:40;;;;;;;7.80;2.85;;;;;;;16.46;100.00;100699.97;5073068;28;20543;-72
2022/09/09 09:36:07;;;;;;;9.73;3.40;;;;;;;16.64;100.00;100693.75;5053011;28;20104;-71
2022/09/09 09:38:34;;;;;;;12.88;3.08;;;;;;;16.76;100.00;100695.81;5052761;28;20039;-71
2022/09/09 09:41:00;;;;;;;11.00;2.63;;;;;;;16.75;100.00;100690.63;5054714;28;20025;-72
2022/09/09 09:43:36;;;;;;;10.48;3.10;;;;;;;16.58;100.00;100687.06;5052220;28;20469;-72
2022/09/09 09:46:17;;;;;;;12.35;3.25;;;;;;;16.60;100.00;100681.69;5053084;28;20043;-72
2022/09/09 09:48:42;;;;;;;10.25;2.70;;;;;;;16.68;100.00;100683.97;5053341;28;20124;-72
2022/09/09 09:51:13;;;;;;;12.05;3.20;;;;;;;16.59;100.00;100680.84;5053040;28;20052;-72
2022/09/09 09:53:39;;;;;;;12.95;2.80;;;;;;;16.45;100.00;100675.44;5053355;28;20384;-72
2022/09/09 09:56:10;;;;;;;6.40;2.30;;;;;;;16.37;100.00;100681.06;5053223;28;20104;-72
2022/09/09 09:58:56;;;;;;;10.43;2.35;;;;;;;16.32;100.00;100693.63;5052637;28;20037;-72
2022/09/09 10:01:26;;;;;;;8.98;3.15;;;;;;;15.94;100.00;100682.34;5052618;28;20048;-72
2022/09/09 10:03:54;;;;;;;11.18;4.03;;;;;;;15.74;100.00;100692.97;5053302;28;20029;-72
2022/09/09 10:06:49;;;;;;;9.45;3.25;;;;;;;15.66;100.00;100696.81;5052487;28;20096;-72
2022/09/09 10:09:26;;;;;;;8.50;3.20;;;;;;;15.56;100.00;100689.38;5052594;28;20124;-72
2022/09/09 10:12:26;;;;;;;9.02;3.50;;;;;;;15.56;100.00;100692.84;5052906;28;20049;-72
2022/09/09 10:15:03;;;;;;;12.23;3.75;;;;;;;15.65;100.00;100691.56;5053256;28;20086;-73
2022/09/09 10:17:47;;;;;;;8.38;3.47;;;;;;;15.73;100.00;100694.75;5052580;28;20029;-72
2022/09/09 10:20:13;;;;;;;11.30;3.38;;;;;;;15.82;100.00;100696.06;5051968;28;20025;-72
2022/09/09 10:22:45;;;;;;;7.17;3.33;;;;;;;15.68;100.00;100700.19;5052897;28;20017;-72
2022/09/09 10:25:44;;;;;;;11.10;3.45;;;;;;;15.44;100.00;100702.16;5052930;28;20025;-72
2022/09/09 10:28:37;;;;;;;14.65;3.78;;;;;;;15.27;100.00;100702.09;5052131;28;20041;-72
2022/09/09 10:31:13;;;;;;;7.93;3.30;;;;;;;15.28;100.00;100708.19;5052545;28;20891;-72
2022/09/09 10:33:50;;;;;;;10.40;3.30;;;;;;;15.28;100.00;100716.06;5052188;28;20029;-72
2022/09/09 10:36:26;;;;;;;12.27;3.75;;;;;;;15.29;100.00;100710.72;5052421;28;20380;-72
2022/09/09 10:39:40;;;;;;;13.18;4.55;;;;;;;15.28;100.00;100714.28;5052476;28;20017;-72
2022/09/09 10:42:12;;;;;;;9.88;3.40;;;;;;;15.31;100.00;100710.69;5049989;28;20070;-73
2022/09/09 10:44:55;;;;;;;8.10;3.30;;;;;;;15.32;100.00;100707.97;5050481;28;20059;-72
2022/09/09 10:47:26;;;;;;;10.57;3.67;;;;;;;15.45;100.00;100708.28;5051048;28;20063;-72
2022/09/09 10:50:18;;;;;;;7.45;3.17;;;;;;;15.65;100.00;100708.19;5052818;28;20029;-72
2022/09/09 10:52:56;;;;;;;8.27;4.20;;;;;;;15.88;100.00;100708.91;5052513;28;20032;-72
2022/09/09 10:55:29;;;;;;;10.38;3.47;;;;;;;15.99;100.00;100696.13;5051715;28;20389;-72
2022/09/09 10:57:58;;;;;;;9.13;3.30;;;;;;;15.93;100.00;100704.31;5052917;28;20027;-72
2022/09/09 11:00:30;;;;;;;10.25;4.03;;;;;;;15.93;100.00;100712.19;5052168;28;20500;-72
2022/09/09 11:02:59;;;;;;;11.47;3.57;;;;;;;15.96;100.00;100705.91;5052186;28;20124;-72
2022/09/09 11:05:30;;;;;;;11.23;3.85;;;;;;;16.01;100.00;100703.94;5052196;28;20297;-72
2022/09/09 11:08:00;;;;;;;7.03;3.85;;;;;;;16.02;100.00;100711.75;5052043;28;20039;-72
2022/09/09 11:10:39;;;;;;;10.95;3.30;;;;;;;16.11;100.00;100699.94;5051868;28;20056;-72
2022/09/09 11:13:15;;;;;;;10.48;3.78;;;;;;;16.15;100.00;100707.63;5052386;28;20064;-73
2022/09/09 11:15:51;;;;;;;9.77;3.60;;;;;;;16.23;100.00;100699.34;5051977;28;20032;-72
2022/09/09 11:18:22;;;;;;;7.65;3.88;;;;;;;16.22;100.00;100709.91;5052058;28;20029;-73
2022/09/09 11:20:54;;;;;;;7.78;3.10;;;;;;;16.18;100.00;100705.75;5052310;28;20048;-73
2022/09/09 11:23:27;;;;;;;9.57;3.55;;;;;;;15.97;100.00;100705.00;5051703;28;20064;-72
2022/09/09 11:25:57;;;;;;;7.05;3.40;;;;;;;15.85;100.00;100707.28;5052361;28;20419;-72
2022/09/09 11:28:40;;;;;;;10.68;3.40;;;;;;;15.82;100.00;100702.16;5051715;28;20032;-72